sensor_id;sensor_type;location;lat;lon;timestamp;temperature;humidity
15969;DHT22;8085;53.472;9.794;2023-11-19T00:00:10;5.50;99.90
15969;DHT22;8085;53.472;9.794;2023-11-19T00:02:38;5.40;99.90
15969;DHT22;8085;53.472;9.794;2023-11-19T00:05:07;5.40;99.90
15969;DHT22;8085;53.472;9.794;2023-11-19T00:07:35;5.50;99.90
15969;DHT22;8085;53.472;9.794;2023-11-19T00:10:03;5.40;99.90
15969;DHT22;8085;53.472;9.794;2023-11-19T00:12:32;5.50;99.90
15969;DHT22;8085;53.472;9.794;2023-11-19T00:14:59;5.50;99.90
15969;DHT22;8085;53.472;9.794;2023-11-19T00:17:26;5.50;99.90
15969;DHT22;8085;53.472;9.794;2023-11-19T00:19:56;5.50;99.90
15969;DHT22;8085;53.472;9.794;2023-11-19T00:22:24;5.50;99.90
15969;DHT22;8085;53.472;9.794;2023-11-19T00:24:51;5.40;99.90
15969;DHT22;8085;53.472;9.794;2023-11-19T00:27:18;5.50;99.90
15969;DHT22;8085;53.472;9.794;2023-11-19T00:29:45;5.60;99.90
15969;DHT22;8085;53.472;9.794;2023-11-19T00:32:12;5.50;99.90
15969;DHT22;8085;53.472;9.794;2023-11-19T00:34:39;5.50;99.90
15969;DHT22;8085;53.472;9.794;2023-11-19T00:37:05;5.50;99.90
15969;DHT22;8085;53.472;9.794;2023-11-19T00:39:36;5.50;99.90
15969;DHT22;8085;53.472;9.794;2023-11-19T00:42:04;5.50;99.90
15969;DHT22;8085;53.472;9.794;2023-11-19T00:44:31;5.60;99.90
15969;DHT22;8085;53.472;9.794;2023-11-19T00:46:58;5.50;99.90
15969;DHT22;8085;53.472;9.794;2023-11-19T00:49:26;5.60;99.90
15969;DHT22;8085;53.472;9.794;2023-11-19T00:51:53;5.60;99.90
15969;DHT22;8085;53.472;9.794;2023-11-19T00:54:20;5.60;99.90
15969;DHT22;8085;53.472;9.794;2023-11-19T00:56:52;5.60;99.90
15969;DHT22;8085;53.472;9.794;2023-11-19T00:59:19;5.60;99.90
15969;DHT22;8085;53.472;9.794;2023-11-19T01:01:46;5.60;99.90
15969;DHT22;8085;53.472;9.794;2023-11-19T01:04:13;5.60;99.90
15969;DHT22;8085;53.472;9.794;2023-11-19T01:06:40;5.60;99.90
15969;DHT22;8085;53.472;9.794;2023-11-19T01:09:08;5.60;99.90
15969;DHT22;8085;53.472;9.794;2023-11-19T01:11:35;5.60;99.90
15969;DHT22;8085;53.472;9.794;2023-11-19T01:14:03;5.70;99.90
15969;DHT22;8085;53.472;9.794;2023-11-19T01:16:30;5.70;99.90
15969;DHT22;8085;53.472;9.794;2023-11-19T01:18:57;5.70;99.90
15969;DHT22;8085;53.472;9.794;2023-11-19T01:21:24;5.80;99.90
15969;DHT22;8085;53.472;9.794;2023-11-19T01:23:51;5.80;99.90
15969;DHT22;8085;53.472;9.794;2023-11-19T01:26:18;5.80;99.90
15969;DHT22;8085;53.472;9.794;2023-11-19T01:28:45;5.80;99.90
15969;DHT22;8085;53.472;9.794;2023-11-19T01:31:15;5.80;99.90
15969;DHT22;8085;53.472;9.794;2023-11-19T01:33:42;5.80;99.90
15969;DHT22;8085;53.472;9.794;2023-11-19T01:36:12;5.80;99.90
15969;DHT22;8085;53.472;9.794;2023-11-19T01:38:39;5.80;99.90
15969;DHT22;8085;53.472;9.794;2023-11-19T01:41:06;5.80;99.90
15969;DHT22;8085;53.472;9.794;2023-11-19T01:43:34;5.80;99.90
15969;DHT22;8085;53.472;9.794;2023-11-19T01:46:01;5.80;99.90
15969;DHT22;8085;53.472;9.794;2023-11-19T01:48:30;5.80;99.90
15969;DHT22;8085;53.472;9.794;2023-11-19T01:50:58;5.80;99.90
15969;DHT22;8085;53.472;9.794;2023-11-19T01:53:27;5.80;99.90
15969;DHT22;8085;53.472;9.794;2023-11-19T01:55:55;5.90;99.90
15969;DHT22;8085;53.472;9.794;2023-11-19T01:58:22;5.90;99.90
15969;DHT22;8085;53.472;9.794;2023-11-19T02:00:49;5.90;99.90
15969;DHT22;8085;53.472;9.794;2023-11-19T02:03:16;6.00;99.90
15969;DHT22;8085;53.472;9.794;2023-11-19T02:05:48;6.00;99.90
15969;DHT22;8085;53.472;9.794;2023-11-19T02:08:16;6.00;99.90
15969;DHT22;8085;53.472;9.794;2023-11-19T02:10:43;5.90;99.90
15969;DHT22;8085;53.472;9.794;2023-11-19T02:13:10;6.00;99.90
15969;DHT22;8085;53.472;9.794;2023-11-19T02:15:39;6.00;99.90
15969;DHT22;8085;53.472;9.794;2023-11-19T02:18:20;6.00;99.90
15969;DHT22;8085;53.472;9.794;2023-11-19T02:20:49;6.00;99.90
15969;DHT22;8085;53.472;9.794;2023-11-19T02:23:18;6.10;99.90
15969;DHT22;8085;53.472;9.794;2023-11-19T02:25:52;6.20;99.90
15969;DHT22;8085;53.472;9.794;2023-11-19T02:28:23;6.10;99.90
15969;DHT22;8085;53.472;9.794;2023-11-19T02:30:50;6.10;99.90
15969;DHT22;8085;53.472;9.794;2023-11-19T02:33:17;6.20;99.90
15969;DHT22;8085;53.472;9.794;2023-11-19T02:35:44;6.20;99.90
15969;DHT22;8085;53.472;9.794;2023-11-19T02:38:11;6.20;99.90
15969;DHT22;8085;53.472;9.794;2023-11-19T02:40:39;6.20;99.90
15969;DHT22;8085;53.472;9.794;2023-11-19T02:43:06;6.20;99.90
15969;DHT22;8085;53.472;9.794;2023-11-19T02:45:35;6.40;99.90
15969;DHT22;8085;53.472;9.794;2023-11-19T02:48:02;6.40;99.90
15969;DHT22;8085;53.472;9.794;2023-11-19T02:50:32;6.40;99.90
15969;DHT22;8085;53.472;9.794;2023-11-19T02:52:59;6.40;99.90
15969;DHT22;8085;53.472;9.794;2023-11-19T02:55:26;6.40;99.90
15969;DHT22;8085;53.472;9.794;2023-11-19T02:58:01;6.50;99.90
15969;DHT22;8085;53.472;9.794;2023-11-19T03:00:35;6.60;99.90
15969;DHT22;8085;53.472;9.794;2023-11-19T03:03:08;6.60;99.90
15969;DHT22;8085;53.472;9.794;2023-11-19T03:05:43;6.70;99.90
15969;DHT22;8085;53.472;9.794;2023-11-19T03:08:12;6.70;99.90
15969;DHT22;8085;53.472;9.794;2023-11-19T03:10:39;6.90;99.90
15969;DHT22;8085;53.472;9.794;2023-11-19T03:13:05;6.80;99.90
15969;DHT22;8085;53.472;9.794;2023-11-19T03:15:38;6.80;99.90
15969;DHT22;8085;53.472;9.794;2023-11-19T03:18:05;7.00;99.90
15969;DHT22;8085;53.472;9.794;2023-11-19T03:20:32;6.90;99.90
15969;DHT22;8085;53.472;9.794;2023-11-19T03:22:59;6.90;99.90
15969;DHT22;8085;53.472;9.794;2023-11-19T03:25:27;6.90;99.90
15969;DHT22;8085;53.472;9.794;2023-11-19T03:27:58;6.90;99.90
15969;DHT22;8085;53.472;9.794;2023-11-19T03:30:26;7.00;99.90
15969;DHT22;8085;53.472;9.794;2023-11-19T03:32:55;7.10;99.90
15969;DHT22;8085;53.472;9.794;2023-11-19T03:35:22;7.10;99.90
15969;DHT22;8085;53.472;9.794;2023-11-19T03:37:49;7.10;99.90
15969;DHT22;8085;53.472;9.794;2023-11-19T03:40:16;7.20;99.90
15969;DHT22;8085;53.472;9.794;2023-11-19T03:42:45;7.20;99.90
15969;DHT22;8085;53.472;9.794;2023-11-19T03:45:12;7.30;99.90
15969;DHT22;8085;53.472;9.794;2023-11-19T03:47:43;7.40;99.90
15969;DHT22;8085;53.472;9.794;2023-11-19T03:50:15;7.40;99.90
15969;DHT22;8085;53.472;9.794;2023-11-19T03:52:42;7.50;99.90
15969;DHT22;8085;53.472;9.794;2023-11-19T03:55:09;7.60;99.90
15969;DHT22;8085;53.472;9.794;2023-11-19T03:57:38;7.60;99.90
15969;DHT22;8085;53.472;9.794;2023-11-19T04:00:07;7.60;99.90
15969;DHT22;8085;53.472;9.794;2023-11-19T04:02:37;7.60;99.90
15969;DHT22;8085;53.472;9.794;2023-11-19T04:05:05;7.60;99.90
15969;DHT22;8085;53.472;9.794;2023-11-19T04:07:34;7.70;99.90
15969;DHT22;8085;53.472;9.794;2023-11-19T04:10:01;7.70;99.90
15969;DHT22;8085;53.472;9.794;2023-11-19T04:12:29;7.70;99.90
15969;DHT22;8085;53.472;9.794;2023-11-19T04:14:59;7.80;99.90
15969;DHT22;8085;53.472;9.794;2023-11-19T04:17:29;7.80;99.90
15969;DHT22;8085;53.472;9.794;2023-11-19T04:19:58;7.90;99.90
15969;DHT22;8085;53.472;9.794;2023-11-19T04:22:29;7.90;99.90
15969;DHT22;8085;53.472;9.794;2023-11-19T04:24:58;8.00;99.90
15969;DHT22;8085;53.472;9.794;2023-11-19T04:27:27;8.00;99.90
15969;DHT22;8085;53.472;9.794;2023-11-19T04:29:55;8.10;99.90
15969;DHT22;8085;53.472;9.794;2023-11-19T04:32:25;8.20;99.90
15969;DHT22;8085;53.472;9.794;2023-11-19T04:34:52;8.30;99.90
15969;DHT22;8085;53.472;9.794;2023-11-19T04:37:22;8.40;99.90
15969;DHT22;8085;53.472;9.794;2023-11-19T04:39:49;8.50;99.90
15969;DHT22;8085;53.472;9.794;2023-11-19T04:42:24;8.60;99.90
15969;DHT22;8085;53.472;9.794;2023-11-19T04:44:51;8.70;99.90
15969;DHT22;8085;53.472;9.794;2023-11-19T04:47:18;8.80;99.90
15969;DHT22;8085;53.472;9.794;2023-11-19T04:49:48;8.80;99.90
15969;DHT22;8085;53.472;9.794;2023-11-19T04:52:16;8.90;99.90
15969;DHT22;8085;53.472;9.794;2023-11-19T04:54:44;8.90;99.90
15969;DHT22;8085;53.472;9.794;2023-11-19T04:57:11;8.90;99.90
15969;DHT22;8085;53.472;9.794;2023-11-19T04:59:39;9.00;99.90
15969;DHT22;8085;53.472;9.794;2023-11-19T05:02:07;9.00;99.90
15969;DHT22;8085;53.472;9.794;2023-11-19T05:04:34;9.00;99.90
15969;DHT22;8085;53.472;9.794;2023-11-19T05:07:03;9.20;99.90
15969;DHT22;8085;53.472;9.794;2023-11-19T05:09:31;9.20;99.90
15969;DHT22;8085;53.472;9.794;2023-11-19T05:11:58;9.30;99.90
15969;DHT22;8085;53.472;9.794;2023-11-19T05:14:25;9.40;99.90
15969;DHT22;8085;53.472;9.794;2023-11-19T05:16:53;9.50;99.90
15969;DHT22;8085;53.472;9.794;2023-11-19T05:19:20;9.60;99.90
15969;DHT22;8085;53.472;9.794;2023-11-19T05:21:47;9.70;99.90
15969;DHT22;8085;53.472;9.794;2023-11-19T05:24:17;9.70;99.90
15969;DHT22;8085;53.472;9.794;2023-11-19T05:26:44;9.80;99.90
15969;DHT22;8085;53.472;9.794;2023-11-19T05:29:15;9.80;99.90
15969;DHT22;8085;53.472;9.794;2023-11-19T05:31:45;10.00;99.90
15969;DHT22;8085;53.472;9.794;2023-11-19T05:34:15;10.00;99.90
15969;DHT22;8085;53.472;9.794;2023-11-19T05:36:45;10.00;99.90
15969;DHT22;8085;53.472;9.794;2023-11-19T05:39:12;10.10;99.90
15969;DHT22;8085;53.472;9.794;2023-11-19T05:41:42;10.10;99.90
15969;DHT22;8085;53.472;9.794;2023-11-19T05:44:09;10.30;99.90
15969;DHT22;8085;53.472;9.794;2023-11-19T05:46:38;10.20;99.90
15969;DHT22;8085;53.472;9.794;2023-11-19T05:49:08;10.20;99.90
15969;DHT22;8085;53.472;9.794;2023-11-19T05:51:38;10.30;99.90
15969;DHT22;8085;53.472;9.794;2023-11-19T05:54:06;10.30;99.90
15969;DHT22;8085;53.472;9.794;2023-11-19T05:56:33;10.40;99.90
15969;DHT22;8085;53.472;9.794;2023-11-19T05:59:00;10.40;99.90
15969;DHT22;8085;53.472;9.794;2023-11-19T06:01:29;10.50;99.90
15969;DHT22;8085;53.472;9.794;2023-11-19T06:03:55;10.50;99.90
15969;DHT22;8085;53.472;9.794;2023-11-19T06:06:22;10.60;99.90
15969;DHT22;8085;53.472;9.794;2023-11-19T06:08:50;10.60;99.90
15969;DHT22;8085;53.472;9.794;2023-11-19T06:11:17;10.60;99.90
15969;DHT22;8085;53.472;9.794;2023-11-19T06:13:46;10.70;99.90
15969;DHT22;8085;53.472;9.794;2023-11-19T06:16:13;10.70;99.90
15969;DHT22;8085;53.472;9.794;2023-11-19T06:18:40;10.70;99.90
15969;DHT22;8085;53.472;9.794;2023-11-19T06:21:09;10.70;99.90
15969;DHT22;8085;53.472;9.794;2023-11-19T06:23:36;10.80;99.90
15969;DHT22;8085;53.472;9.794;2023-11-19T06:26:05;10.80;99.90
15969;DHT22;8085;53.472;9.794;2023-11-19T06:28:32;10.80;99.90
15969;DHT22;8085;53.472;9.794;2023-11-19T06:30:59;10.80;99.90
15969;DHT22;8085;53.472;9.794;2023-11-19T06:33:26;10.80;99.90
15969;DHT22;8085;53.472;9.794;2023-11-19T06:35:53;10.80;99.90
15969;DHT22;8085;53.472;9.794;2023-11-19T06:38:20;10.80;99.90
15969;DHT22;8085;53.472;9.794;2023-11-19T06:40:47;10.90;99.90
15969;DHT22;8085;53.472;9.794;2023-11-19T06:43:15;10.80;99.90
15969;DHT22;8085;53.472;9.794;2023-11-19T06:45:42;10.90;99.90
15969;DHT22;8085;53.472;9.794;2023-11-19T06:48:09;10.90;99.90
15969;DHT22;8085;53.472;9.794;2023-11-19T06:50:36;10.90;99.90
15969;DHT22;8085;53.472;9.794;2023-11-19T06:53:04;10.90;99.90
15969;DHT22;8085;53.472;9.794;2023-11-19T06:55:32;11.00;99.90
15969;DHT22;8085;53.472;9.794;2023-11-19T06:58:00;11.00;99.90
15969;DHT22;8085;53.472;9.794;2023-11-19T07:00:29;11.00;99.90
15969;DHT22;8085;53.472;9.794;2023-11-19T07:02:59;11.00;99.90
15969;DHT22;8085;53.472;9.794;2023-11-19T07:05:26;11.00;99.90
15969;DHT22;8085;53.472;9.794;2023-11-19T07:07:53;11.00;99.90
15969;DHT22;8085;53.472;9.794;2023-11-19T07:10:21;11.10;99.90
15969;DHT22;8085;53.472;9.794;2023-11-19T07:12:48;11.00;99.90
15969;DHT22;8085;53.472;9.794;2023-11-19T07:15:16;11.00;99.90
15969;DHT22;8085;53.472;9.794;2023-11-19T07:17:45;11.00;99.90
15969;DHT22;8085;53.472;9.794;2023-11-19T07:20:13;11.00;99.90
15969;DHT22;8085;53.472;9.794;2023-11-19T07:22:43;11.10;99.90
15969;DHT22;8085;53.472;9.794;2023-11-19T07:25:12;11.00;99.90
15969;DHT22;8085;53.472;9.794;2023-11-19T07:27:39;11.00;99.90
15969;DHT22;8085;53.472;9.794;2023-11-19T07:30:07;11.00;99.90
15969;DHT22;8085;53.472;9.794;2023-11-19T07:32:34;11.00;99.90
15969;DHT22;8085;53.472;9.794;2023-11-19T07:35:02;11.00;99.90
15969;DHT22;8085;53.472;9.794;2023-11-19T07:37:29;11.00;99.90
15969;DHT22;8085;53.472;9.794;2023-11-19T07:39:56;11.00;99.90
15969;DHT22;8085;53.472;9.794;2023-11-19T07:42:23;11.00;99.90
15969;DHT22;8085;53.472;9.794;2023-11-19T07:44:50;11.00;99.90
15969;DHT22;8085;53.472;9.794;2023-11-19T07:47:17;11.00;99.90
15969;DHT22;8085;53.472;9.794;2023-11-19T07:49:44;11.00;99.90
15969;DHT22;8085;53.472;9.794;2023-11-19T07:52:12;11.10;99.90
15969;DHT22;8085;53.472;9.794;2023-11-19T07:54:39;11.00;99.90
15969;DHT22;8085;53.472;9.794;2023-11-19T07:57:06;11.00;99.90
15969;DHT22;8085;53.472;9.794;2023-11-19T07:59:33;11.00;99.90
15969;DHT22;8085;53.472;9.794;2023-11-19T08:02:00;11.00;99.90
15969;DHT22;8085;53.472;9.794;2023-11-19T08:04:26;11.00;99.90
15969;DHT22;8085;53.472;9.794;2023-11-19T08:06:53;11.00;99.90
15969;DHT22;8085;53.472;9.794;2023-11-19T08:09:21;11.00;99.90
15969;DHT22;8085;53.472;9.794;2023-11-19T08:11:48;11.00;99.90
15969;DHT22;8085;53.472;9.794;2023-11-19T08:14:15;11.00;99.90
15969;DHT22;8085;53.472;9.794;2023-11-19T08:16:42;11.00;99.90
15969;DHT22;8085;53.472;9.794;2023-11-19T08:19:09;11.00;99.90
15969;DHT22;8085;53.472;9.794;2023-11-19T08:21:36;11.00;99.90
15969;DHT22;8085;53.472;9.794;2023-11-19T08:24:09;11.00;99.90
15969;DHT22;8085;53.472;9.794;2023-11-19T08:26:37;11.00;99.90
15969;DHT22;8085;53.472;9.794;2023-11-19T08:29:05;11.00;99.90
15969;DHT22;8085;53.472;9.794;2023-11-19T08:31:32;11.00;99.90
15969;DHT22;8085;53.472;9.794;2023-11-19T08:34:01;11.00;99.90
15969;DHT22;8085;53.472;9.794;2023-11-19T08:36:28;11.00;99.90
15969;DHT22;8085;53.472;9.794;2023-11-19T08:38:57;11.00;99.90
15969;DHT22;8085;53.472;9.794;2023-11-19T08:41:24;11.00;99.90
15969;DHT22;8085;53.472;9.794;2023-11-19T08:43:59;11.00;99.90
15969;DHT22;8085;53.472;9.794;2023-11-19T08:46:29;11.00;99.90
15969;DHT22;8085;53.472;9.794;2023-11-19T08:49:04;11.00;99.90
15969;DHT22;8085;53.472;9.794;2023-11-19T08:51:31;11.10;99.90
15969;DHT22;8085;53.472;9.794;2023-11-19T08:54:11;11.00;99.90
15969;DHT22;8085;53.472;9.794;2023-11-19T08:56:42;11.00;99.90
15969;DHT22;8085;53.472;9.794;2023-11-19T08:59:10;11.00;99.90
15969;DHT22;8085;53.472;9.794;2023-11-19T09:01:39;11.00;99.90
15969;DHT22;8085;53.472;9.794;2023-11-19T09:04:10;11.00;99.90
15969;DHT22;8085;53.472;9.794;2023-11-19T09:06:37;10.90;99.90
15969;DHT22;8085;53.472;9.794;2023-11-19T09:09:08;11.00;99.90
15969;DHT22;8085;53.472;9.794;2023-11-19T09:11:35;11.00;99.90
15969;DHT22;8085;53.472;9.794;2023-11-19T09:14:02;11.00;99.90
15969;DHT22;8085;53.472;9.794;2023-11-19T09:16:33;11.00;99.90
15969;DHT22;8085;53.472;9.794;2023-11-19T09:19:19;11.00;99.90
15969;DHT22;8085;53.472;9.794;2023-11-19T09:21:46;11.00;99.90
15969;DHT22;8085;53.472;9.794;2023-11-19T09:24:21;11.00;99.90
15969;DHT22;8085;53.472;9.794;2023-11-19T09:26:54;11.00;99.90
15969;DHT22;8085;53.472;9.794;2023-11-19T09:29:23;11.00;99.90
15969;DHT22;8085;53.472;9.794;2023-11-19T09:31:51;11.00;99.90
15969;DHT22;8085;53.472;9.794;2023-11-19T09:34:18;10.90;99.90
15969;DHT22;8085;53.472;9.794;2023-11-19T09:36:45;10.90;99.90
15969;DHT22;8085;53.472;9.794;2023-11-19T09:39:12;10.90;99.90
15969;DHT22;8085;53.472;9.794;2023-11-19T09:41:55;11.00;99.90
15969;DHT22;8085;53.472;9.794;2023-11-19T09:44:24;11.00;99.90
15969;DHT22;8085;53.472;9.794;2023-11-19T09:46:55;11.10;99.90
15969;DHT22;8085;53.472;9.794;2023-11-19T09:49:25;11.00;99.90
15969;DHT22;8085;53.472;9.794;2023-11-19T09:51:55;11.00;99.90
15969;DHT22;8085;53.472;9.794;2023-11-19T09:54:24;11.20;99.90
15969;DHT22;8085;53.472;9.794;2023-11-19T09:56:52;11.10;99.90
15969;DHT22;8085;53.472;9.794;2023-11-19T09:59:19;11.00;99.90
15969;DHT22;8085;53.472;9.794;2023-11-19T10:01:49;11.10;99.90
15969;DHT22;8085;53.472;9.794;2023-11-19T10:04:19;11.00;99.90
15969;DHT22;8085;53.472;9.794;2023-11-19T10:06:46;11.10;99.90
15969;DHT22;8085;53.472;9.794;2023-11-19T10:09:13;11.00;99.90
15969;DHT22;8085;53.472;9.794;2023-11-19T10:11:41;11.00;99.90
15969;DHT22;8085;53.472;9.794;2023-11-19T10:14:09;11.00;99.90
15969;DHT22;8085;53.472;9.794;2023-11-19T10:16:36;11.10;99.90
15969;DHT22;8085;53.472;9.794;2023-11-19T10:19:06;11.10;99.90
15969;DHT22;8085;53.472;9.794;2023-11-19T10:21:35;11.10;99.90
15969;DHT22;8085;53.472;9.794;2023-11-19T10:24:03;11.10;99.90
15969;DHT22;8085;53.472;9.794;2023-11-19T10:26:30;10.90;99.90
15969;DHT22;8085;53.472;9.794;2023-11-19T10:29:01;11.00;99.90
15969;DHT22;8085;53.472;9.794;2023-11-19T10:31:29;11.00;99.90
15969;DHT22;8085;53.472;9.794;2023-11-19T10:33:56;11.00;99.90
15969;DHT22;8085;53.472;9.794;2023-11-19T10:36:38;11.00;99.90
15969;DHT22;8085;53.472;9.794;2023-11-19T10:39:06;11.00;99.90
15969;DHT22;8085;53.472;9.794;2023-11-19T10:41:34;11.00;99.90
15969;DHT22;8085;53.472;9.794;2023-11-19T10:44:01;11.10;99.90
15969;DHT22;8085;53.472;9.794;2023-11-19T10:46:38;11.00;99.90
15969;DHT22;8085;53.472;9.794;2023-11-19T10:49:09;11.10;99.90
15969;DHT22;8085;53.472;9.794;2023-11-19T10:51:36;11.00;99.90
15969;DHT22;8085;53.472;9.794;2023-11-19T10:54:07;11.10;99.90
15969;DHT22;8085;53.472;9.794;2023-11-19T10:56:37;10.90;99.90
15969;DHT22;8085;53.472;9.794;2023-11-19T10:59:09;10.90;99.90
15969;DHT22;8085;53.472;9.794;2023-11-19T11:01:52;10.90;99.90
15969;DHT22;8085;53.472;9.794;2023-11-19T11:04:23;11.00;99.90
15969;DHT22;8085;53.472;9.794;2023-11-19T11:06:51;10.90;99.90
15969;DHT22;8085;53.472;9.794;2023-11-19T11:09:20;10.90;99.90
15969;DHT22;8085;53.472;9.794;2023-11-19T11:11:48;10.90;99.90
15969;DHT22;8085;53.472;9.794;2023-11-19T11:14:18;11.00;99.90
15969;DHT22;8085;53.472;9.794;2023-11-19T11:16:49;11.00;99.90
15969;DHT22;8085;53.472;9.794;2023-11-19T11:19:17;10.90;99.90
15969;DHT22;8085;53.472;9.794;2023-11-19T11:21:49;11.00;99.90
15969;DHT22;8085;53.472;9.794;2023-11-19T11:24:29;11.00;99.90
15969;DHT22;8085;53.472;9.794;2023-11-19T11:27:30;11.10;99.90
15969;DHT22;8085;53.472;9.794;2023-11-19T11:30:07;11.10;99.90
15969;DHT22;8085;53.472;9.794;2023-11-19T11:32:43;11.10;99.90
15969;DHT22;8085;53.472;9.794;2023-11-19T11:35:24;11.10;99.90
15969;DHT22;8085;53.472;9.794;2023-11-19T11:37:58;11.20;99.90
15969;DHT22;8085;53.472;9.794;2023-11-19T11:40:28;11.30;99.90
15969;DHT22;8085;53.472;9.794;2023-11-19T11:42:55;11.40;99.90
15969;DHT22;8085;53.472;9.794;2023-11-19T11:45:35;11.40;99.90
15969;DHT22;8085;53.472;9.794;2023-11-19T11:48:09;11.40;99.90
15969;DHT22;8085;53.472;9.794;2023-11-19T11:50:48;11.40;99.90
15969;DHT22;8085;53.472;9.794;2023-11-19T11:53:20;11.40;99.90
15969;DHT22;8085;53.472;9.794;2023-11-19T11:56:00;11.40;99.90
15969;DHT22;8085;53.472;9.794;2023-11-19T11:58:36;11.40;99.90
15969;DHT22;8085;53.472;9.794;2023-11-19T12:01:04;11.30;99.90
15969;DHT22;8085;53.472;9.794;2023-11-19T12:03:34;11.30;99.90
15969;DHT22;8085;53.472;9.794;2023-11-19T12:06:04;11.30;99.90
15969;DHT22;8085;53.472;9.794;2023-11-19T12:08:34;11.30;99.90
15969;DHT22;8085;53.472;9.794;2023-11-19T12:11:03;11.40;99.90
15969;DHT22;8085;53.472;9.794;2023-11-19T12:13:47;11.30;99.90
15969;DHT22;8085;53.472;9.794;2023-11-19T12:16:15;11.30;99.90
15969;DHT22;8085;53.472;9.794;2023-11-19T12:18:42;11.40;99.90
15969;DHT22;8085;53.472;9.794;2023-11-19T12:21:08;11.40;99.90
15969;DHT22;8085;53.472;9.794;2023-11-19T12:23:45;11.50;99.90
15969;DHT22;8085;53.472;9.794;2023-11-19T12:26:37;11.40;99.90
15969;DHT22;8085;53.472;9.794;2023-11-19T12:29:05;11.50;99.90
15969;DHT22;8085;53.472;9.794;2023-11-19T12:31:32;11.50;99.90
15969;DHT22;8085;53.472;9.794;2023-11-19T12:34:08;11.60;99.90
15969;DHT22;8085;53.472;9.794;2023-11-19T12:36:38;11.60;99.90
15969;DHT22;8085;53.472;9.794;2023-11-19T12:39:05;11.60;99.90
15969;DHT22;8085;53.472;9.794;2023-11-19T12:41:32;11.60;99.90
15969;DHT22;8085;53.472;9.794;2023-11-19T12:44:10;11.60;99.90
15969;DHT22;8085;53.472;9.794;2023-11-19T12:46:37;11.50;99.90
15969;DHT22;8085;53.472;9.794;2023-11-19T12:49:04;11.50;99.90
15969;DHT22;8085;53.472;9.794;2023-11-19T12:51:31;11.50;99.90
15969;DHT22;8085;53.472;9.794;2023-11-19T12:53:58;11.50;99.90
15969;DHT22;8085;53.472;9.794;2023-11-19T12:56:25;11.50;99.90
15969;DHT22;8085;53.472;9.794;2023-11-19T12:58:52;11.40;99.90
15969;DHT22;8085;53.472;9.794;2023-11-19T13:01:20;11.40;99.90
15969;DHT22;8085;53.472;9.794;2023-11-19T13:03:48;11.50;99.90
15969;DHT22;8085;53.472;9.794;2023-11-19T13:06:17;11.50;99.90
15969;DHT22;8085;53.472;9.794;2023-11-19T13:08:48;11.50;99.90
15969;DHT22;8085;53.472;9.794;2023-11-19T13:11:30;11.60;99.90
15969;DHT22;8085;53.472;9.794;2023-11-19T13:13:58;11.60;99.90
15969;DHT22;8085;53.472;9.794;2023-11-19T13:16:29;11.60;99.90
15969;DHT22;8085;53.472;9.794;2023-11-19T13:19:11;11.70;99.90
15969;DHT22;8085;53.472;9.794;2023-11-19T13:21:41;11.70;99.90
15969;DHT22;8085;53.472;9.794;2023-11-19T13:24:17;11.70;99.90
15969;DHT22;8085;53.472;9.794;2023-11-19T13:26:59;11.70;99.90
15969;DHT22;8085;53.472;9.794;2023-11-19T13:29:26;11.80;99.90
15969;DHT22;8085;53.472;9.794;2023-11-19T13:31:54;11.80;99.90
15969;DHT22;8085;53.472;9.794;2023-11-19T13:34:21;11.80;99.90
15969;DHT22;8085;53.472;9.794;2023-11-19T13:36:48;11.70;99.90
15969;DHT22;8085;53.472;9.794;2023-11-19T13:39:35;11.80;99.90
15969;DHT22;8085;53.472;9.794;2023-11-19T13:44:59;11.80;99.90
15969;DHT22;8085;53.472;9.794;2023-11-19T13:47:27;11.80;99.90
15969;DHT22;8085;53.472;9.794;2023-11-19T13:49:54;11.80;99.90
15969;DHT22;8085;53.472;9.794;2023-11-19T13:52:40;11.80;99.90
15969;DHT22;8085;53.472;9.794;2023-11-19T13:55:09;11.80;99.90
15969;DHT22;8085;53.472;9.794;2023-11-19T13:57:40;11.70;99.90
15969;DHT22;8085;53.472;9.794;2023-11-19T14:00:11;11.70;99.90
15969;DHT22;8085;53.472;9.794;2023-11-19T14:02:40;11.70;99.90
15969;DHT22;8085;53.472;9.794;2023-11-19T14:05:07;11.60;99.90
15969;DHT22;8085;53.472;9.794;2023-11-19T14:07:35;11.60;99.90
15969;DHT22;8085;53.472;9.794;2023-11-19T14:10:02;11.60;99.90
15969;DHT22;8085;53.472;9.794;2023-11-19T14:12:30;11.60;99.90
15969;DHT22;8085;53.472;9.794;2023-11-19T14:14:57;11.50;99.90
15969;DHT22;8085;53.472;9.794;2023-11-19T14:17:25;11.70;99.90
15969;DHT22;8085;53.472;9.794;2023-11-19T14:19:53;11.50;99.90
15969;DHT22;8085;53.472;9.794;2023-11-19T14:22:20;11.50;99.90
15969;DHT22;8085;53.472;9.794;2023-11-19T14:24:49;11.50;99.90
15969;DHT22;8085;53.472;9.794;2023-11-19T14:27:16;11.50;99.90
15969;DHT22;8085;53.472;9.794;2023-11-19T14:29:44;11.50;99.90
15969;DHT22;8085;53.472;9.794;2023-11-19T14:32:11;11.40;99.90
15969;DHT22;8085;53.472;9.794;2023-11-19T14:34:38;11.40;99.90
15969;DHT22;8085;53.472;9.794;2023-11-19T14:37:12;11.40;99.90
15969;DHT22;8085;53.472;9.794;2023-11-19T14:39:39;11.30;99.90
15969;DHT22;8085;53.472;9.794;2023-11-19T14:42:07;11.20;99.90
15969;DHT22;8085;53.472;9.794;2023-11-19T14:44:34;11.20;99.90
15969;DHT22;8085;53.472;9.794;2023-11-19T14:47:01;11.20;99.90
15969;DHT22;8085;53.472;9.794;2023-11-19T14:49:35;11.10;99.90
15969;DHT22;8085;53.472;9.794;2023-11-19T14:52:02;11.10;99.90
15969;DHT22;8085;53.472;9.794;2023-11-19T14:54:30;11.10;99.90
15969;DHT22;8085;53.472;9.794;2023-11-19T14:56:57;11.10;99.90
15969;DHT22;8085;53.472;9.794;2023-11-19T14:59:25;11.10;99.90
15969;DHT22;8085;53.472;9.794;2023-11-19T15:01:53;11.00;99.90
15969;DHT22;8085;53.472;9.794;2023-11-19T15:04:20;11.00;99.90
15969;DHT22;8085;53.472;9.794;2023-11-19T15:06:51;11.00;99.90
15969;DHT22;8085;53.472;9.794;2023-11-19T15:09:18;11.00;99.90
15969;DHT22;8085;53.472;9.794;2023-11-19T15:11:48;11.00;99.90
15969;DHT22;8085;53.472;9.794;2023-11-19T15:14:15;11.00;99.90
15969;DHT22;8085;53.472;9.794;2023-11-19T15:16:45;11.00;99.90
15969;DHT22;8085;53.472;9.794;2023-11-19T15:19:12;10.90;99.90
15969;DHT22;8085;53.472;9.794;2023-11-19T15:21:39;10.90;99.90
15969;DHT22;8085;53.472;9.794;2023-11-19T15:24:08;10.90;99.90
15969;DHT22;8085;53.472;9.794;2023-11-19T15:26:35;10.90;99.90
15969;DHT22;8085;53.472;9.794;2023-11-19T15:29:04;10.80;99.90
15969;DHT22;8085;53.472;9.794;2023-11-19T15:31:31;10.80;99.90
15969;DHT22;8085;53.472;9.794;2023-11-19T15:33:58;10.80;99.90
15969;DHT22;8085;53.472;9.794;2023-11-19T15:36:25;10.90;99.90
15969;DHT22;8085;53.472;9.794;2023-11-19T15:38:52;10.80;99.90
15969;DHT22;8085;53.472;9.794;2023-11-19T15:41:20;10.80;99.90
15969;DHT22;8085;53.472;9.794;2023-11-19T15:43:47;10.80;99.90
15969;DHT22;8085;53.472;9.794;2023-11-19T15:46:17;10.80;99.90
15969;DHT22;8085;53.472;9.794;2023-11-19T15:48:44;10.80;99.90
15969;DHT22;8085;53.472;9.794;2023-11-19T15:51:11;10.80;99.90
15969;DHT22;8085;53.472;9.794;2023-11-19T15:53:41;10.80;99.90
15969;DHT22;8085;53.472;9.794;2023-11-19T15:56:09;10.70;99.90
15969;DHT22;8085;53.472;9.794;2023-11-19T15:58:36;10.60;99.90
15969;DHT22;8085;53.472;9.794;2023-11-19T16:01:05;10.70;99.90
15969;DHT22;8085;53.472;9.794;2023-11-19T16:03:35;10.70;99.90
15969;DHT22;8085;53.472;9.794;2023-11-19T16:06:02;10.80;99.90